Impacts TAF Board INFO
FOR SITUATIONAL AWARENESS. NOT TO BE USED FOR FLIGHT PLANNING PURPOSES.
IDs:

KPDX - Portland Intl Arpt, OR, US

Issued at 1739 UTC 18 Feb 2018
Updated at 1936 UTC 18 Feb 2018
Potential Impact None Slight Moderate High
Time1931Z 18/20Z 18/21Z 18/22Z 18/23Z 19/00Z 19/01Z 19/02Z 19/03Z 19/04Z 19/05Z 19/06Z 19/07Z 19/08Z>>
Type OBS PRVL PRVL PRVL PRVL PRVL PRVL PRVL PRVL PRVL PRVL PRVL PRVL PRVL
VIS 10 >6 >6 >6 >6 >6 >6 >6 >6 >6 >6 >6 >6 >6
CIG 14 45 45 45 45 45 45 45 45 45 45 45 45 45
Cover OVC BKN BKN BKN BKN BKN BKN BKN BKN BKN BKN BKN BKN BKN
FltCat MVFR VFR VFR VFR VFR VFR VFR VFR VFR VFR VFR VFR VFR VFR
WX -RA -SHRA -SHSN -SHRA -SHSN -SHRA -SHSN -SHRA -SHSN -SHRA -SHSN -SHRA -SHSN -SHRA -SHSN -SHRA -SHSN -SHRA -SHSN -- -- -- --
WDir 200 250 250 250 250 250 250 300 300 300 80 80 80 80
WSpd 14 10 10 10 10 10 10 6 6 6 9 9 9 9
WGst 21 -- -- -- -- -- -- -- -- -- -- -- -- --

Raw TAF
KPDX 181739Z 1818/1918 22012G22KT P6SM -SHRASN SCT015 BKN025 OVC035
  FM182000 25010KT P6SM -SHRASN SCT025 BKN045
  FM190200 30006KT P6SM -SHRASN SCT020 BKN045
  FM190500 08009KT P6SM SCT020 BKN045


Raw METAR
KPDX 181931Z 20014G21KT 10SM -RA BKN014 BKN041 OVC050 03/01 A2972 RMK AO2 RAB17 P0000 T00330011
KPDX 181853Z 20016G22KT 10SM SCT012 BKN050 BKN075 OVC130 03/01 A2972 RMK AO2 PK WND 19027/1834 RAE18 SLP062 P0000 T00330011
KPDX 181807Z 20013KT 10SM -RA FEW015 BKN040 BKN060 BKN150 03/02 A2974 RMK AO2 P0000 T00330017
KPDX 181753Z 20014G20KT 10SM -RA SCT015 BKN029 OVC060 03/01 A2974 RMK AO2 RAB06E20B36 SLP069 P0000 60002 T00280011 10039 20017 50000
KPDX 181736Z 20014KT 10SM -RA SCT014 BKN024 OVC100 03/01 A2974 RMK AO2 RAB06E20B36 P0000 T00280011
KPDX 181720Z 20014KT 10SM SCT015 SCT026 BKN070 BKN150 03/01 A2974 RMK AO2 RAB06E20 P0000 T00280011
KPDX 181708Z 19016G21KT 10SM -RA SCT015 BKN028 OVC100 03/01 A2974 RMK AO2 RAB06 P0000 T00280011
KPDX 181653Z 20013KT 10SM SCT016 BKN085 OVC100 03/01 A2974 RMK AO2 RAE24 SLP071 P0001 T00280011

METAR Board
Radar Display
Forecast Discussion

FOR SITUATIONAL AWARENESS. NOT TO BE USED FOR FLIGHT PLANNING PURPOSES.